createdAt,value
2022-10-09T00:01:23.112Z,100669.31
2022-10-09T00:03:52.665Z,100667.56
2022-10-09T00:06:24.632Z,100675.78
2022-10-09T00:08:52.038Z,100681.00
2022-10-09T00:11:26.011Z,100674.72
2022-10-09T00:13:54.695Z,100679.47
2022-10-09T00:16:25.507Z,100680.03
2022-10-09T00:18:53.595Z,100691.56
2022-10-09T00:21:31.031Z,100690.84
2022-10-09T00:24:00.709Z,100692.66
2022-10-09T00:26:28.585Z,100692.69
2022-10-09T00:28:56.768Z,100693.28
2022-10-09T00:31:24.753Z,100691.88
2022-10-09T00:33:51.713Z,100687.25
2022-10-09T00:36:22.749Z,100680.94
2022-10-09T00:38:50.152Z,100678.28
2022-10-09T00:41:21.946Z,100682.78
2022-10-09T00:43:56.992Z,100682.41
2022-10-09T00:46:44.701Z,100692.06
2022-10-09T00:49:29.338Z,100687.16
2022-10-09T00:52:02.043Z,100685.38
2022-10-09T00:54:34.765Z,100691.28
2022-10-09T00:57:02.386Z,100689.19
2022-10-09T00:59:30.121Z,100694.31
2022-10-09T01:01:57.695Z,100705.13
2022-10-09T01:04:24.807Z,100702.09
2022-10-09T01:07:06.690Z,100706.22
2022-10-09T01:09:57.949Z,100708.75
2022-10-09T01:12:52.071Z,100713.03
2022-10-09T01:15:46.996Z,100704.78
2022-10-09T01:18:46.329Z,100714.91
2022-10-09T01:21:52.959Z,100719.78
2022-10-09T01:24:37.913Z,100716.25
2022-10-09T01:27:22.237Z,100721.16
2022-10-09T01:29:55.297Z,100720.13
2022-10-09T01:32:29.883Z,100731.28
2022-10-09T01:34:57.760Z,100724.28
2022-10-09T01:37:25.287Z,100726.69
2022-10-09T01:39:53.699Z,100729.81
2022-10-09T01:42:22.974Z,100733.28
2022-10-09T01:44:49.903Z,100737.59
2022-10-09T01:47:19.814Z,100730.97
2022-10-09T01:50:10.250Z,100741.88
2022-10-09T01:52:55.187Z,100753.28
2022-10-09T01:55:37.256Z,100743.50
2022-10-09T01:58:29.394Z,100754.59
2022-10-09T02:01:05.879Z,100755.06
2022-10-09T02:03:36.261Z,100756.19
2022-10-09T02:06:06.097Z,100758.50
2022-10-09T02:08:35.039Z,100762.72
2022-10-09T02:11:03.435Z,100767.41
2022-10-09T02:13:32.839Z,100772.41
2022-10-09T02:16:36.990Z,100768.69
2022-10-09T02:19:13.567Z,100769.97
2022-10-09T02:21:48.656Z,100769.47
2022-10-09T02:24:22.770Z,100776.44
2022-10-09T02:26:52.951Z,100774.31
2022-10-09T02:29:20.481Z,100778.53
2022-10-09T02:31:47.781Z,100772.22
2022-10-09T02:34:19.819Z,100784.44
2022-10-09T02:36:47.801Z,100777.88
2022-10-09T02:39:15.392Z,100790.81
2022-10-09T02:41:42.393Z,100795.84
2022-10-09T02:44:09.846Z,100800.94
2022-10-09T02:46:38.549Z,100811.50
2022-10-09T02:49:07.041Z,100813.03
2022-10-09T02:51:34.278Z,100810.53
2022-10-09T02:54:01.205Z,100818.41
2022-10-09T02:56:29.099Z,100819.28
2022-10-09T02:58:56.349Z,100823.53
2022-10-09T03:01:23.844Z,100824.94
2022-10-09T03:03:50.971Z,100822.78
2022-10-09T03:06:22.384Z,100825.28
2022-10-09T03:08:50.901Z,100826.91
2022-10-09T03:11:21.683Z,100838.31
2022-10-09T03:13:49.104Z,100831.03
2022-10-09T03:16:19.787Z,100827.88
2022-10-09T03:18:48.385Z,100846.16
2022-10-09T03:21:20.375Z,100844.44
2022-10-09T03:23:48.928Z,100847.97
2022-10-09T03:26:20.959Z,100851.56
2022-10-09T03:28:49.865Z,100847.88
2022-10-09T03:31:46.524Z,100852.97
2022-10-09T03:34:06.609Z,100853.03
2022-10-09T03:36:33.561Z,100854.06
2022-10-09T03:39:00.509Z,100859.56
2022-10-09T03:41:27.548Z,100861.13
2022-10-09T03:43:55.896Z,100860.03
2022-10-09T03:46:22.927Z,100871.16
2022-10-09T03:48:49.849Z,100869.47
2022-10-09T03:51:16.899Z,100867.03
2022-10-09T03:53:43.850Z,100874.00
2022-10-09T03:56:10.841Z,100874.88
2022-10-09T03:58:37.835Z,100871.72
2022-10-09T04:01:04.828Z,100875.91
2022-10-09T04:03:31.857Z,100883.06
2022-10-09T04:05:58.798Z,100882.28
2022-10-09T04:08:25.743Z,100887.09
2022-10-09T04:10:59.846Z,100884.50
2022-10-09T04:13:27.313Z,100888.31
2022-10-09T04:15:54.916Z,100893.88
2022-10-09T04:18:22.622Z,100886.34
2022-10-09T04:20:54.596Z,100893.44
2022-10-09T04:23:27.951Z,100889.78
2022-10-09T04:25:58.312Z,100893.09
2022-10-09T04:28:27.127Z,100898.66
2022-10-09T04:30:54.468Z,100898.03
2022-10-09T04:33:21.462Z,100903.16
2022-10-09T04:35:52.780Z,100904.47
2022-10-09T04:38:21.231Z,100904.47
2022-10-09T04:41:03.954Z,100908.44
2022-10-09T04:43:31.958Z,100906.47
2022-10-09T04:45:59.111Z,100911.34
2022-10-09T04:48:26.170Z,100926.59
2022-10-09T04:50:53.280Z,100927.88
2022-10-09T04:53:20.292Z,100920.38
2022-10-09T04:55:47.207Z,100941.91
2022-10-09T04:58:14.754Z,100936.41
2022-10-09T05:00:46.414Z,100934.00
2022-10-09T05:03:13.826Z,100940.72
2022-10-09T05:05:40.859Z,100934.47
2022-10-09T05:08:07.818Z,100949.47
2022-10-09T05:10:34.770Z,100948.06
2022-10-09T05:13:01.697Z,100952.78
2022-10-09T05:15:28.706Z,100960.03
2022-10-09T05:17:55.674Z,100972.66
2022-10-09T05:20:22.891Z,100973.47
2022-10-09T05:22:50.118Z,100972.66
2022-10-09T05:25:17.324Z,100961.94
2022-10-09T05:27:44.260Z,100982.25
2022-10-09T05:30:11.644Z,100993.59
2022-10-09T05:32:38.607Z,100982.19
2022-10-09T05:35:06.091Z,100999.63
2022-10-09T05:37:33.038Z,100996.22
2022-10-09T05:40:00.025Z,100999.72
2022-10-09T05:42:26.989Z,101000.91
2022-10-09T05:44:53.992Z,101002.56
2022-10-09T05:47:20.921Z,101015.78
2022-10-09T05:49:47.892Z,101011.50
2022-10-09T05:52:14.786Z,101008.75
2022-10-09T05:54:42.091Z,101016.53
2022-10-09T05:57:09.951Z,101017.91
2022-10-09T05:59:36.920Z,101028.09
2022-10-09T06:02:04.536Z,101025.97
2022-10-09T06:04:31.678Z,101044.53
2022-10-09T06:06:58.731Z,101044.63
2022-10-09T06:09:26.239Z,101045.81
2022-10-09T06:11:54.992Z,101045.75
2022-10-09T06:14:23.134Z,101049.69
2022-10-09T06:16:50.860Z,101056.81
2022-10-09T06:19:19.709Z,101057.41
2022-10-09T06:21:47.677Z,101053.31
2022-10-09T06:24:29.072Z,101064.41
2022-10-09T06:26:57.868Z,101059.50
2022-10-09T06:29:25.233Z,101067.50
2022-10-09T06:31:52.383Z,101070.91
2022-10-09T06:34:19.490Z,101069.22
2022-10-09T06:36:46.536Z,101089.53
2022-10-09T06:39:13.632Z,101101.03
2022-10-09T06:41:40.630Z,101097.81
2022-10-09T06:44:16.319Z,101092.72
2022-10-09T06:46:45.996Z,101109.22
2022-10-09T06:49:13.096Z,101112.44
2022-10-09T06:51:40.117Z,101111.53
2022-10-09T06:54:15.218Z,101115.72
2022-10-09T06:56:42.363Z,101118.59
2022-10-09T06:59:11.087Z,101125.53
2022-10-09T07:01:38.152Z,101139.91
2022-10-09T07:04:09.996Z,101138.69
2022-10-09T07:06:44.154Z,101146.56
2022-10-09T07:09:14.079Z,101148.00
2022-10-09T07:11:49.261Z,101148.56
2022-10-09T07:14:17.252Z,101153.13
2022-10-09T07:16:47.226Z,101144.88
2022-10-09T07:19:17.611Z,101143.47
2022-10-09T07:21:49.437Z,101151.59
2022-10-09T07:24:17.655Z,101155.34
2022-10-09T07:26:46.379Z,101162.38
2022-10-09T07:29:16.012Z,101163.59
2022-10-09T07:31:43.918Z,101163.78
2022-10-09T07:34:11.073Z,101153.19
2022-10-09T07:36:38.072Z,101158.50
2022-10-09T07:39:06.037Z,101164.22
2022-10-09T07:41:33.413Z,101164.03
2022-10-09T07:44:00.559Z,101168.72
2022-10-09T07:46:32.932Z,101175.50
2022-10-09T07:49:01.615Z,101177.56
2022-10-09T07:51:30.491Z,101187.09
2022-10-09T07:53:58.418Z,101188.97
2022-10-09T07:56:29.257Z,101186.13
2022-10-09T07:59:00.148Z,101190.78
2022-10-09T08:01:29.335Z,101192.69
2022-10-09T08:03:57.431Z,101190.22
2022-10-09T08:06:25.265Z,101197.19
2022-10-09T08:08:54.685Z,101192.16
2022-10-09T08:11:24.585Z,101207.47
2022-10-09T08:13:53.197Z,101217.53
2022-10-09T08:16:22.592Z,101217.66
2022-10-09T08:18:49.803Z,101229.69
2022-10-09T08:21:18.939Z,101236.53
2022-10-09T08:23:46.637Z,101238.72
2022-10-09T08:26:19.572Z,101232.84
2022-10-09T08:28:56.056Z,101230.41
2022-10-09T08:31:24.239Z,101244.84
2022-10-09T08:33:56.248Z,101240.47
2022-10-09T08:36:24.204Z,101242.75
2022-10-09T08:38:52.222Z,101243.59
2022-10-09T08:41:33.145Z,101245.13
2022-10-09T08:44:24.137Z,101256.63
2022-10-09T08:47:00.362Z,101251.28
2022-10-09T08:49:33.061Z,101251.13
2022-10-09T08:52:33.597Z,101254.03
2022-10-09T08:55:20.291Z,101258.19
2022-10-09T08:57:52.153Z,101261.50
2022-10-09T09:00:27.417Z,101258.69
2022-10-09T09:03:31.903Z,101265.47
2022-10-09T09:06:29.303Z,101268.28
2022-10-09T09:09:02.304Z,101248.53
2022-10-09T09:11:47.041Z,101263.41
2022-10-09T09:14:31.850Z,101261.66
2022-10-09T09:17:22.449Z,101266.28
2022-10-09T09:20:39.337Z,101264.75
2022-10-09T09:23:13.364Z,101265.63
2022-10-09T09:25:42.854Z,101263.28
2022-10-09T09:28:20.723Z,101270.09
2022-10-09T09:30:55.896Z,101265.69
2022-10-09T09:33:44.991Z,101278.25
2022-10-09T09:36:33.456Z,101282.63
2022-10-09T09:41:47.447Z,101283.34
2022-10-09T09:44:16.945Z,101284.19
2022-10-09T09:46:46.332Z,101290.06
2022-10-09T09:49:23.759Z,101291.59
2022-10-09T09:51:51.441Z,101290.69
2022-10-09T09:54:24.283Z,101291.03
2022-10-09T09:57:15.852Z,101292.94
2022-10-09T09:59:44.812Z,101305.69
2022-10-09T10:02:22.631Z,101311.13
2022-10-09T10:05:27.459Z,101307.16
2022-10-09T10:07:57.585Z,101310.34
2022-10-09T10:10:27.310Z,101303.31
2022-10-09T10:12:58.131Z,101312.00
2022-10-09T10:15:32.332Z,101310.34
2022-10-09T10:18:04.540Z,101311.44
2022-10-09T10:20:42.473Z,101307.44
2022-10-09T10:23:37.826Z,101316.38
2022-10-09T10:26:35.699Z,101313.09
2022-10-09T10:29:35.490Z,101324.03
2022-10-09T10:32:40.293Z,101321.69
2022-10-09T10:35:34.255Z,101321.88
2022-10-09T10:38:28.758Z,101330.56
2022-10-09T10:41:20.106Z,101334.41
2022-10-09T10:43:57.787Z,101331.81
2022-10-09T10:46:49.041Z,101334.19
2022-10-09T10:49:22.172Z,101339.81
2022-10-09T10:52:07.496Z,101339.44
2022-10-09T10:54:59.427Z,101340.84
2022-10-09T10:57:51.088Z,101352.94
2022-10-09T11:00:18.670Z,101344.81
2022-10-09T11:03:34.535Z,101350.28
2022-10-09T11:06:12.615Z,101356.50
2022-10-09T11:09:31.191Z,101352.66
2022-10-09T11:12:30.024Z,101346.78
2022-10-09T11:15:59.784Z,101342.91
2022-10-09T11:18:41.918Z,101342.41
2022-10-09T11:21:29.219Z,101346.44
2022-10-09T11:24:39.808Z,101330.00
2022-10-09T11:27:41.635Z,101330.69
2022-10-09T11:30:15.495Z,101335.09
2022-10-09T11:33:24.721Z,101337.97
2022-10-09T11:36:05.016Z,101340.81
2022-10-09T11:38:50.874Z,101345.56
2022-10-09T11:41:18.636Z,101343.56
2022-10-09T11:44:15.672Z,101341.09
2022-10-09T11:47:02.876Z,101342.31
2022-10-09T11:50:13.240Z,101334.00
2022-10-09T11:53:13.024Z,101340.63
2022-10-09T11:55:40.223Z,101328.66
2022-10-09T11:58:19.344Z,101336.31
2022-10-09T12:00:50.714Z,101339.13
2022-10-09T12:03:35.254Z,101334.34
2022-10-09T12:06:14.183Z,101340.34
2022-10-09T12:08:59.318Z,101344.84
2022-10-09T12:11:27.013Z,101337.59
2022-10-09T12:14:08.833Z,101341.34
2022-10-09T12:16:44.339Z,101338.31
2022-10-09T12:19:37.997Z,101345.28
2022-10-09T12:22:14.382Z,101337.31
2022-10-09T12:24:57.301Z,101339.34
2022-10-09T12:27:32.217Z,101334.84
2022-10-09T12:30:13.666Z,101340.19
2022-10-09T12:33:01.059Z,101338.56
2022-10-09T12:35:36.970Z,101320.59
2022-10-09T12:38:28.974Z,101340.31
2022-10-09T12:41:07.305Z,101330.56
2022-10-09T12:43:36.374Z,101335.69
2022-10-09T12:46:04.029Z,101337.03
2022-10-09T12:48:40.138Z,101330.88
2022-10-09T12:51:21.658Z,101336.66
2022-10-09T12:53:52.071Z,101330.09
2022-10-09T12:56:29.785Z,101339.03
2022-10-09T12:58:58.579Z,101336.88
2022-10-09T13:01:26.438Z,101345.09
2022-10-09T13:03:59.907Z,101332.69
2022-10-09T13:06:36.105Z,101341.28
2022-10-09T13:09:07.240Z,101341.97
2022-10-09T13:11:51.646Z,101346.97
2022-10-09T13:14:45.718Z,101349.84
2022-10-09T13:17:37.470Z,101342.53
2022-10-09T13:20:28.900Z,101345.38
2022-10-09T13:23:06.213Z,101348.75
2022-10-09T13:25:39.020Z,101338.38
2022-10-09T13:28:06.543Z,101337.53
2022-10-09T13:30:33.849Z,101347.03
2022-10-09T13:33:00.963Z,101345.28
2022-10-09T13:35:27.905Z,101338.25
2022-10-09T13:37:54.845Z,101334.75
2022-10-09T13:40:22.399Z,101332.84
2022-10-09T13:43:00.969Z,101327.53
2022-10-09T13:45:28.235Z,101325.22
2022-10-09T13:47:55.139Z,101339.09
2022-10-09T13:50:22.405Z,101333.75
2022-10-09T13:52:49.472Z,101331.66
2022-10-09T13:55:17.152Z,101327.78
2022-10-09T13:57:44.170Z,101330.38
2022-10-09T14:00:11.942Z,101326.72
2022-10-09T14:02:39.049Z,101324.16
2022-10-09T14:05:06.496Z,101329.47
2022-10-09T14:07:33.408Z,101327.03
2022-10-09T14:10:00.407Z,101338.16
2022-10-09T14:12:27.450Z,101332.91
2022-10-09T14:14:54.804Z,101339.94
2022-10-09T14:17:21.879Z,101342.63
2022-10-09T14:19:48.837Z,101338.16
2022-10-09T14:22:16.179Z,101331.78
2022-10-09T14:24:43.149Z,101333.16
2022-10-09T14:27:10.575Z,101339.16
2022-10-09T14:29:38.231Z,101340.69
2022-10-09T14:32:06.025Z,101334.44
2022-10-09T14:34:33.063Z,101337.38
2022-10-09T14:37:00.053Z,101334.88
2022-10-09T14:39:27.021Z,101337.47
2022-10-09T14:41:54.002Z,101334.34
2022-10-09T14:44:20.940Z,101326.31
2022-10-09T14:46:47.952Z,101329.66
2022-10-09T14:49:15.011Z,101319.91
2022-10-09T14:51:42.282Z,101322.03
2022-10-09T14:54:11.393Z,101323.50
2022-10-09T14:56:38.716Z,101323.56
2022-10-09T14:59:06.279Z,101329.03
2022-10-09T15:01:34.324Z,101333.31
2022-10-09T15:04:02.678Z,101334.34
2022-10-09T15:06:29.766Z,101328.53
2022-10-09T15:09:03.174Z,101335.81
2022-10-09T15:11:34.725Z,101334.44
2022-10-09T15:14:02.306Z,101333.50
2022-10-09T15:16:29.262Z,101333.00
2022-10-09T15:18:57.000Z,101333.69
2022-10-09T15:21:27.701Z,101339.13
2022-10-09T15:23:57.351Z,101335.34
2022-10-09T15:26:25.972Z,101341.13
2022-10-09T15:28:52.943Z,101340.75
2022-10-09T15:31:31.404Z,101337.69
2022-10-09T15:34:01.597Z,101344.34
2022-10-09T15:36:31.452Z,101342.63
2022-10-09T15:39:00.768Z,101349.09
2022-10-09T15:41:30.919Z,101350.22
2022-10-09T15:44:01.986Z,101341.16
2022-10-09T15:46:29.779Z,101334.34
2022-10-09T15:48:57.151Z,101349.84
2022-10-09T15:51:24.876Z,101346.56
2022-10-09T15:53:53.259Z,101354.53
2022-10-09T15:56:25.423Z,101347.41
2022-10-09T15:58:56.451Z,101349.31
2022-10-09T16:01:24.163Z,101358.44
2022-10-09T16:03:52.116Z,101356.84
2022-10-09T16:06:22.757Z,101366.97
2022-10-09T16:08:50.102Z,101360.44
2022-10-09T16:11:21.610Z,101364.94
2022-10-09T16:13:52.874Z,101375.31
2022-10-09T16:16:23.746Z,101371.06
2022-10-09T16:18:51.717Z,101378.03
2022-10-09T16:21:27.969Z,101372.53
2022-10-09T16:23:58.848Z,101377.50
2022-10-09T16:26:29.224Z,101381.31
2022-10-09T16:28:56.372Z,101380.66
2022-10-09T16:31:28.205Z,101383.41
2022-10-09T16:33:58.475Z,101384.06
2022-10-09T16:36:25.493Z,101381.63
2022-10-09T16:38:52.515Z,101384.53
2022-10-09T16:41:22.236Z,101381.72
2022-10-09T16:43:54.063Z,101387.88
2022-10-09T16:46:28.516Z,101387.47
2022-10-09T16:48:57.958Z,101391.78
2022-10-09T16:51:29.320Z,101382.19
2022-10-09T16:54:00.103Z,101373.34
2022-10-09T16:56:30.796Z,101379.41
2022-10-09T16:59:02.456Z,101387.94
2022-10-09T17:01:30.240Z,101380.00
2022-10-09T17:03:59.144Z,101376.25
2022-10-09T17:06:27.163Z,101374.50
2022-10-09T17:08:58.205Z,101388.25
2022-10-09T17:11:27.668Z,101384.72
2022-10-09T17:13:56.860Z,101389.66
2022-10-09T17:16:28.563Z,101392.41
2022-10-09T17:18:56.800Z,101396.00
2022-10-09T17:21:26.774Z,101395.72
2022-10-09T17:24:00.979Z,101405.22
2022-10-09T17:26:29.277Z,101396.47
2022-10-09T17:28:59.365Z,101404.94
2022-10-09T17:31:27.520Z,101399.25
2022-10-09T17:33:58.667Z,101411.31
2022-10-09T17:36:29.460Z,101409.44
2022-10-09T17:38:57.139Z,101409.56
2022-10-09T17:41:26.656Z,101404.28
2022-10-09T17:43:55.594Z,101396.75
2022-10-09T17:46:25.331Z,101405.41
2022-10-09T17:48:56.749Z,101405.41
2022-10-09T17:51:34.314Z,101410.47
2022-10-09T17:54:09.534Z,101416.97
2022-10-09T17:56:39.942Z,101421.84
2022-10-09T17:59:07.309Z,101411.78
2022-10-09T18:01:35.004Z,101420.47
2022-10-09T18:04:02.273Z,101424.81
2022-10-09T18:06:33.598Z,101423.16
2022-10-09T18:09:01.574Z,101420.72
2022-10-09T18:11:30.068Z,101426.31
2022-10-09T18:13:57.962Z,101428.84
2022-10-09T18:16:35.904Z,101433.31
2022-10-09T18:19:08.862Z,101415.91
2022-10-09T18:21:35.903Z,101416.41
2022-10-09T18:24:02.975Z,101413.53
2022-10-09T18:26:30.073Z,101415.16
2022-10-09T18:28:59.820Z,101420.38
2022-10-09T18:31:27.303Z,101422.19
2022-10-09T18:33:54.424Z,101428.72
2022-10-09T18:36:31.160Z,101429.47
2022-10-09T18:39:12.171Z,101424.66
2022-10-09T18:41:39.688Z,101431.91
2022-10-09T18:44:12.640Z,101443.53
2022-10-09T18:46:44.683Z,101438.34
2022-10-09T18:49:14.760Z,101447.31
2022-10-09T18:51:43.596Z,101441.28
2022-10-09T18:54:17.107Z,101447.81
2022-10-09T18:56:44.860Z,101444.91
2022-10-09T18:59:17.215Z,101438.31
2022-10-09T19:01:44.189Z,101448.97
2022-10-09T19:04:11.214Z,101454.09
2022-10-09T19:06:38.610Z,101450.03
2022-10-09T19:09:05.936Z,101452.91
2022-10-09T19:11:34.273Z,101464.59
2022-10-09T19:14:02.132Z,101463.94
2022-10-09T19:16:32.165Z,101463.56
2022-10-09T19:19:00.227Z,101462.22
2022-10-09T19:21:27.617Z,101460.78
2022-10-09T19:23:55.554Z,101464.97
2022-10-09T19:26:23.330Z,101472.53
2022-10-09T19:28:50.396Z,101467.31
2022-10-09T19:31:18.349Z,101462.84
2022-10-09T19:33:45.629Z,101465.22
2022-10-09T19:36:14.279Z,101466.59
2022-10-09T19:38:42.107Z,101459.63
2022-10-09T19:41:13.417Z,101475.03
2022-10-09T19:43:41.204Z,101462.50
2022-10-09T19:46:18.612Z,101458.91
2022-10-09T19:48:45.972Z,101469.41
2022-10-09T19:51:27.584Z,101466.91
2022-10-09T19:53:54.966Z,101471.22
2022-10-09T19:56:27.709Z,101471.25
2022-10-09T19:58:56.835Z,101471.44
2022-10-09T20:01:29.332Z,101465.63
2022-10-09T20:04:00.299Z,101467.59
2022-10-09T20:06:27.886Z,101469.91
2022-10-09T20:08:55.624Z,101477.72
2022-10-09T20:11:23.183Z,101473.72
2022-10-09T20:13:55.536Z,101470.63
2022-10-09T20:16:25.192Z,101474.53
2022-10-09T20:18:53.872Z,101472.66
2022-10-09T20:21:20.924Z,101475.97
2022-10-09T20:23:48.741Z,101484.06
2022-10-09T20:26:18.754Z,101475.53
2022-10-09T20:28:46.943Z,101474.53
2022-10-09T20:31:18.310Z,101479.81
2022-10-09T20:33:46.967Z,101477.88
2022-10-09T20:36:27.678Z,101482.03
2022-10-09T20:38:56.923Z,101482.66
2022-10-09T20:41:25.288Z,101475.56
2022-10-09T20:43:54.114Z,101477.75
2022-10-09T20:46:23.728Z,101484.00
2022-10-09T20:48:52.447Z,101478.19
2022-10-09T20:51:21.139Z,101477.25
2022-10-09T20:54:01.208Z,101479.16
2022-10-09T20:56:30.854Z,101481.75
2022-10-09T20:58:58.822Z,101478.75
2022-10-09T21:01:27.923Z,101487.09
2022-10-09T21:03:59.370Z,101484.25
2022-10-09T21:06:26.841Z,101477.91
2022-10-09T21:08:53.871Z,101482.34
2022-10-09T21:11:20.996Z,101477.50
2022-10-09T21:13:48.830Z,101473.66
2022-10-09T21:16:23.368Z,101468.91
2022-10-09T21:19:03.233Z,101478.06
2022-10-09T21:21:31.161Z,101465.91
2022-10-09T21:24:00.512Z,101473.53
2022-10-09T21:26:35.331Z,101468.34
2022-10-09T21:29:06.093Z,101460.25
2022-10-09T21:31:33.734Z,101478.72
2022-10-09T21:34:01.501Z,101471.78
2022-10-09T21:39:36.974Z,101465.56
2022-10-09T21:42:04.173Z,101469.28
2022-10-09T21:44:31.119Z,101464.78
2022-10-09T21:46:58.069Z,101456.91
2022-10-09T21:49:30.152Z,101476.72
2022-10-09T21:51:57.711Z,101460.84
2022-10-09T21:54:24.850Z,101464.34
2022-10-09T21:56:51.991Z,101473.69
2022-10-09T21:59:18.911Z,101475.59
2022-10-09T22:01:46.026Z,101479.03
2022-10-09T22:04:13.107Z,101480.00
2022-10-09T22:06:41.169Z,101464.16
2022-10-09T22:09:08.359Z,101469.09
2022-10-09T22:11:35.376Z,101478.53
2022-10-09T22:14:02.395Z,101471.63
2022-10-09T22:16:29.343Z,101476.88
2022-10-09T22:18:56.363Z,101490.44
2022-10-09T22:21:23.494Z,101479.28
2022-10-09T22:23:51.179Z,101479.84
2022-10-09T22:26:22.577Z,101484.25
2022-10-09T22:28:50.347Z,101485.06
2022-10-09T22:31:21.943Z,101484.72
2022-10-09T22:34:01.203Z,101488.09
2022-10-09T22:36:32.446Z,101483.81
2022-10-09T22:39:02.501Z,101482.81
2022-10-09T22:41:30.535Z,101482.72
2022-10-09T22:43:59.665Z,101495.34
2022-10-09T22:46:37.269Z,101490.84
2022-10-09T22:49:06.271Z,101486.00
2022-10-09T22:51:33.637Z,101489.56
2022-10-09T22:54:00.989Z,101498.16
2022-10-09T22:56:31.888Z,101496.22
2022-10-09T22:58:59.485Z,101493.41
2022-10-09T23:01:33.608Z,101489.78
2022-10-09T23:04:04.800Z,101495.41
2022-10-09T23:06:32.695Z,101485.63
2022-10-09T23:09:00.427Z,101482.41
2022-10-09T23:11:27.989Z,101476.13
2022-10-09T23:13:58.728Z,101475.53
2022-10-09T23:16:30.420Z,101486.28
2022-10-09T23:19:02.967Z,101484.16
2022-10-09T23:21:32.636Z,101485.19
2022-10-09T23:23:59.634Z,101476.88
2022-10-09T23:26:30.502Z,101476.78
2022-10-09T23:29:04.095Z,101476.56
2022-10-09T23:31:31.445Z,101474.44
2022-10-09T23:33:59.238Z,101467.13
2022-10-09T23:36:28.535Z,101465.69
2022-10-09T23:38:56.581Z,101468.69
2022-10-09T23:41:26.869Z,101460.78
2022-10-09T23:43:54.805Z,101467.22
2022-10-09T23:46:26.106Z,101470.56
2022-10-09T23:48:53.929Z,101469.47
2022-10-09T23:51:22.854Z,101465.53
2022-10-09T23:53:50.164Z,101457.06
2022-10-09T23:56:25.705Z,101468.13
2022-10-09T23:58:54.436Z,101458.75
